Time;durP1;ratioP1;P1;durP2;ratioP2;P2;SDS_P1;SDS_P2;PMS_P1;PMS_P2;Temp;Humidity;BMP_temperature;BMP_pressure;BME280_temperature;BME280_humidity;BME280_pressure;Samples;Min_cycle;Max_cycle;Signal;HPM_P1;HPM_P2
2023/01/11 00:01:02;;;;;;;90.40;83.20;;;;;;;4.19;100.00;100777.72;5022055;28;20049;-84
2023/01/11 00:03:29;;;;;;;90.30;83.57;;;;;;;4.21;100.00;100789.72;5021495;28;20104;-84
2023/01/11 00:05:58;;;;;;;87.57;81.18;;;;;;;4.25;100.00;100769.16;5022168;28;20500;-84
2023/01/11 00:08:26;;;;;;;85.07;78.75;;;;;;;4.27;100.00;100780.34;5022376;28;20470;-84
2023/01/11 00:10:52;;;;;;;84.88;78.68;;;;;;;4.27;100.00;100775.09;5024601;28;20547;-84
2023/01/11 00:13:20;;;;;;;80.35;74.25;;;;;;;4.23;100.00;100766.69;5025278;28;20042;-83
2023/01/11 00:15:46;;;;;;;149.23;139.52;;;;;;;4.20;100.00;100790.66;5024129;28;20057;-83
2023/01/11 00:18:14;;;;;;;141.93;132.65;;;;;;;4.09;100.00;100778.69;5025695;28;20053;-84
2023/01/11 00:20:41;;;;;;;148.77;139.27;;;;;;;4.17;100.00;100782.28;5025171;28;20049;-84
2023/01/11 00:23:09;;;;;;;131.95;123.53;;;;;;;4.16;100.00;100762.25;5024686;28;20494;-84
2023/01/11 00:25:36;;;;;;;132.13;123.75;;;;;;;4.06;100.00;100791.34;5020440;28;20042;-83
2023/01/11 00:28:03;;;;;;;148.07;138.52;;;;;;;4.10;100.00;100793.47;5012343;28;20046;-83
2023/01/11 00:30:29;;;;;;;163.88;152.98;;;;;;;4.08;100.00;100799.84;5023648;28;20499;-84
2023/01/11 00:32:56;;;;;;;169.68;158.13;;;;;;;4.10;100.00;100814.50;5024821;28;20049;-84
2023/01/11 00:35:25;;;;;;;192.68;179.75;;;;;;;4.07;100.00;100809.56;5024244;28;20053;-83
2023/01/11 00:37:52;;;;;;;163.82;152.50;;;;;;;4.00;100.00;100811.19;5023964;28;20046;-83
2023/01/11 00:40:19;;;;;;;158.93;148.15;;;;;;;4.05;100.00;100826.47;5024264;28;20049;-84
2023/01/11 00:48:15;;;;;;;149.18;139.23;;;;;;;3.90;100.00;100831.50;5022954;28;20065;-83
2023/01/11 00:50:43;;;;;;;137.88;128.88;;;;;;;3.98;100.00;100828.91;5024727;28;20054;-84
2023/01/11 00:53:10;;;;;;;131.57;123.13;;;;;;;3.97;100.00;100835.16;5024925;28;20473;-84
2023/01/11 00:55:37;;;;;;;139.77;130.68;;;;;;;4.00;100.00;100837.47;5022708;28;20045;-84
2023/01/11 00:58:04;;;;;;;88.25;81.88;;;;;;;3.95;100.00;100839.75;5023414;28;20046;-83
2023/01/11 01:00:31;;;;;;;93.55;86.85;;;;;;;3.80;100.00;100846.59;5023378;28;20053;-84
2023/01/11 01:02:58;;;;;;;92.45;85.60;;;;;;;3.72;100.00;100836.88;5013268;28;20115;-83
2023/01/11 01:05:25;;;;;;;149.77;140.00;;;;;;;3.88;100.00;100836.94;5019151;28;20050;-83
2023/01/11 01:07:53;;;;;;;146.73;136.85;;;;;;;3.81;100.00;100833.31;5021674;28;20169;-83
2023/01/11 01:10:20;;;;;;;158.88;148.52;;;;;;;3.80;100.00;100834.28;5021208;28;20046;-84
2023/01/11 01:15:31;;;;;;;152.05;142.38;;;;;;;3.73;100.00;100814.88;5021402;28;20056;-83
2023/01/11 01:17:58;;;;;;;151.07;141.68;;;;;;;3.71;100.00;100803.69;5020916;28;20470;-83
2023/01/11 01:20:25;;;;;;;159.82;149.35;;;;;;;3.92;100.00;100823.47;5021547;28;20214;-83
2023/01/11 01:22:53;;;;;;;135.38;126.63;;;;;;;3.89;100.00;100822.00;5020796;28;20052;-83
2023/01/11 01:25:20;;;;;;;152.95;142.65;;;;;;;3.88;100.00;100821.16;5020820;28;20111;-83
2023/01/11 01:27:47;;;;;;;82.50;76.10;;;;;;;3.85;100.00;100816.25;5022145;28;20467;-83
2023/01/11 01:30:15;;;;;;;98.50;91.40;;;;;;;3.78;100.00;100815.25;5020368;28;20534;-83
2023/01/11 01:32:42;;;;;;;130.30;121.70;;;;;;;3.74;100.00;100811.25;5021671;28;20115;-83
2023/01/11 01:35:09;;;;;;;141.20;132.02;;;;;;;3.71;100.00;100829.16;5021151;28;20506;-83
2023/01/11 01:37:36;;;;;;;144.80;135.00;;;;;;;3.72;100.00;100831.59;5020398;28;20491;-83
2023/01/11 01:40:06;;;;;;;142.18;132.38;;;;;;;3.69;100.00;100824.03;5020145;28;20113;-83
2023/01/11 01:42:32;;;;;;;143.02;133.18;;;;;;;3.65;100.00;100831.41;5021486;28;20058;-83
2023/01/11 01:45:02;;;;;;;151.63;141.32;;;;;;;3.61;100.00;100824.84;5019009;28;20073;-83
2023/01/11 01:47:46;;;;;;;153.88;143.30;;;;;;;3.76;100.00;100811.13;5019968;28;20558;-83
2023/01/11 01:50:17;;;;;;;103.97;96.53;;;;;;;3.81;100.00;100816.69;5020356;28;20049;-83
2023/01/11 01:52:50;;;;;;;94.53;87.53;;;;;;;3.86;100.00;100822.31;5020467;28;20116;-83
2023/01/11 01:55:20;;;;;;;;;;;;;;;3.89;100.00;100824.63;5020849;28;20300;-83
2023/01/11 01:57:47;;;;;;;95.40;88.38;;;;;;;3.75;100.00;100833.94;5021237;28;20370;-83
2023/01/11 02:00:15;;;;;;;106.43;98.72;;;;;;;3.72;100.00;100828.97;5020013;28;20062;-83
2023/01/11 02:02:44;;;;;;;95.68;88.70;;;;;;;3.77;100.00;100823.25;5020304;28;20054;-83
2023/01/11 02:05:12;;;;;;;92.28;85.35;;;;;;;3.85;100.00;100825.94;5021368;28;20046;-83
2023/01/11 02:07:42;;;;;;;139.60;109.32;;;;;;;3.83;100.00;100830.50;5020602;28;20045;-84
2023/01/11 02:10:12;;;;;;;303.48;156.13;;;;;;;3.82;100.00;100834.13;5020305;28;20057;-83
2023/01/11 02:12:45;;;;;;;148.20;115.85;;;;;;;3.83;100.00;100827.88;5020635;28;20053;-84
2023/01/11 02:15:13;;;;;;;175.60;127.20;;;;;;;3.81;100.00;100819.31;5019049;28;20112;-83
2023/01/11 02:17:40;;;;;;;127.18;105.00;;;;;;;3.82;100.00;100828.88;5021091;28;20116;-83
2023/01/11 02:20:20;;;;;;;124.30;114.57;;;;;;;3.80;100.00;100834.28;5020561;28;20474;-83
2023/01/11 02:23:28;;;;;;;117.28;108.35;;;;;;;3.85;100.00;100846.94;5019933;28;20046;-83
2023/01/11 02:26:27;;;;;;;110.85;102.97;;;;;;;3.67;100.00;100850.47;5019460;28;20045;-83
2023/01/11 02:29:04;;;;;;;102.05;94.65;;;;;;;3.81;100.00;100845.59;5020035;28;20103;-83
2023/01/11 02:31:35;;;;;;;102.57;95.05;;;;;;;3.77;100.00;100833.78;5006751;28;20051;-84
2023/01/11 02:34:15;;;;;;;96.28;88.90;;;;;;;3.78;100.00;100831.00;5008913;28;20084;-83
2023/01/11 02:36:55;;;;;;;102.93;95.43;;;;;;;3.78;100.00;100843.28;5019600;28;20108;-83
2023/01/11 02:39:31;;;;;;;107.38;99.53;;;;;;;3.70;100.00;100841.47;5019324;28;20042;-83
2023/01/11 02:45:03;;;;;;;103.70;95.07;;;;;;;3.78;100.00;100836.25;5019186;28;20045;-83
2023/01/11 02:47:39;;;;;;;133.32;122.80;;;;;;;3.81;100.00;100840.34;5019902;28;20116;-83
2023/01/11 02:50:13;;;;;;;125.03;115.03;;;;;;;3.73;100.00;100850.84;5020821;28;20117;-84
2023/01/11 02:52:46;;;;;;;114.35;105.85;;;;;;;3.66;100.00;100838.34;5019946;28;20050;-84
2023/01/11 02:55:17;;;;;;;116.95;107.60;;;;;;;3.70;100.00;100835.41;5020303;28;20470;-83
2023/01/11 02:57:45;;;;;;;130.18;119.93;;;;;;;3.63;100.00;100843.91;5020449;28;20103;-83
2023/01/11 03:00:18;;;;;;;129.90;119.30;;;;;;;3.58;100.00;100838.28;5020291;28;20076;-83
2023/01/11 03:02:44;;;;;;;122.32;112.32;;;;;;;3.70;100.00;100838.84;5020670;28;20125;-83
2023/01/11 03:05:13;;;;;;;118.15;107.18;;;;;;;3.61;100.00;100829.28;5023225;28;20561;-83
2023/01/11 03:07:55;;;;;;;137.20;125.47;;;;;;;3.55;100.00;100835.97;5023373;28;20050;-84
2023/01/11 03:10:38;;;;;;;119.45;109.75;;;;;;;3.64;100.00;100847.34;5021223;28;20166;-83
2023/01/11 03:13:07;;;;;;;;;;;;;;;3.65;100.00;100841.94;5023770;28;20068;-83
2023/01/11 03:15:49;;;;;;;115.40;105.45;;;;;;;3.65;100.00;100836.69;5022989;28;19921;-83
2023/01/11 03:18:30;;;;;;;122.33;112.33;;;;;;;3.68;100.00;100817.97;5022126;28;20523;-84
2023/01/11 03:21:07;;;;;;;120.28;110.47;;;;;;;3.62;100.00;100823.84;5022679;28;20301;-83
2023/01/11 03:23:41;;;;;;;114.50;105.72;;;;;;;3.56;100.00;100828.94;5021892;28;20042;-83
2023/01/11 03:26:17;;;;;;;109.43;101.72;;;;;;;3.51;100.00;100841.69;5022536;28;20500;-83
2023/01/11 03:28:52;;;;;;;109.78;101.82;;;;;;;3.50;100.00;100846.13;5022623;28;20112;-83
2023/01/11 03:31:29;;;;;;;106.35;98.30;;;;;;;3.58;100.00;100871.63;5021730;28;20050;-84
2023/01/11 03:34:03;;;;;;;139.55;128.95;;;;;;;3.61;100.00;100873.94;5023149;28;20046;-84
2023/01/11 03:36:36;;;;;;;110.78;102.53;;;;;;;3.51;100.00;100874.06;5022847;28;20054;-84
2023/01/11 03:39:09;;;;;;;109.75;100.95;;;;;;;3.51;100.00;100879.31;5018590;28;20108;-83
2023/01/11 03:41:39;;;;;;;115.13;105.65;;;;;;;3.44;100.00;100886.97;5022270;28;20062;-83
2023/01/11 03:44:09;;;;;;;116.07;106.13;;;;;;;3.53;100.00;100889.66;5022268;28;20108;-84
2023/01/11 03:46:40;;;;;;;123.78;113.80;;;;;;;3.52;100.00;100883.56;5022554;28;20120;-83
2023/01/11 03:49:13;;;;;;;111.30;102.22;;;;;;;3.54;100.00;100886.03;5022984;28;20053;-84
2023/01/11 03:51:43;;;;;;;154.13;143.02;;;;;;;3.51;100.00;100881.09;5018901;28;20053;-83
2023/01/11 03:54:16;;;;;;;130.00;120.30;;;;;;;3.59;100.00;100881.13;5022626;28;20119;-84
2023/01/11 03:57:09;;;;;;;118.10;109.05;;;;;;;3.48;100.00;100869.13;5022288;28;20046;-83
2023/01/11 03:59:36;;;;;;;143.75;133.55;;;;;;;3.47;100.00;100893.72;5016025;28;20474;-83
2023/01/11 04:02:05;;;;;;;112.63;103.90;;;;;;;3.52;100.00;100895.88;5022197;28;20664;-83
2023/01/11 04:04:31;;;;;;;109.88;101.47;;;;;;;3.44;100.00;100899.28;5022791;28;20046;-84
2023/01/11 04:06:58;;;;;;;118.45;109.88;;;;;;;3.49;100.00;100899.63;5021606;28;20046;-83
2023/01/11 04:09:25;;;;;;;108.75;100.75;;;;;;;3.46;100.00;100889.44;5021566;28;20038;-83
2023/01/11 04:11:52;;;;;;;99.70;92.30;;;;;;;3.45;100.00;100887.81;5023295;28;20046;-83
2023/01/11 04:14:18;;;;;;;97.47;90.38;;;;;;;3.46;100.00;100897.31;5022056;28;20500;-84
2023/01/11 04:16:45;;;;;;;113.53;105.03;;;;;;;3.42;100.00;100903.88;5021556;28;20062;-83
2023/01/11 04:19:13;;;;;;;102.22;94.50;;;;;;;3.48;100.00;100905.88;5022244;28;20108;-84
2023/01/11 04:21:40;;;;;;;103.85;96.28;;;;;;;3.50;100.00;100921.47;5021966;28;20153;-84
2023/01/11 04:24:07;;;;;;;114.80;104.50;;;;;;;3.48;100.00;100923.41;5021831;28;20112;-83
2023/01/11 04:26:34;;;;;;;111.72;101.85;;;;;;;3.46;100.00;100926.22;5022284;28;20096;-83
2023/01/11 04:29:01;;;;;;;124.25;114.75;;;;;;;3.40;100.00;100921.56;5021174;28;20050;-83
2023/01/11 04:31:27;;;;;;;132.50;123.28;;;;;;;3.34;100.00;100936.13;5021453;28;20046;-83
2023/01/11 04:33:54;;;;;;;122.30;113.95;;;;;;;3.39;100.00;100933.06;5020577;28;20056;-83
2023/01/11 04:36:22;;;;;;;172.00;161.07;;;;;;;3.44;100.00;100928.97;5021625;28;20050;-83
2023/01/11 04:38:49;;;;;;;180.88;169.07;;;;;;;3.39;100.00;100936.50;5021380;28;20054;-83
2023/01/11 04:44:00;;;;;;;170.73;159.57;;;;;;;3.37;100.00;100916.63;5021208;28;20166;-83
2023/01/11 04:46:27;;;;;;;134.68;125.82;;;;;;;3.38;100.00;100905.97;5021641;28;20076;-83
2023/01/11 04:48:55;;;;;;;144.20;134.70;;;;;;;3.44;100.00;100912.41;5020926;28;20046;-83
2023/01/11 04:51:23;;;;;;;144.73;135.32;;;;;;;3.50;100.00;100917.03;5022071;28;20463;-83
2023/01/11 04:53:50;;;;;;;133.30;124.70;;;;;;;3.41;100.00;100921.41;5021350;28;20049;-83
2023/01/11 04:56:17;;;;;;;92.03;85.53;;;;;;;3.50;100.00;100924.91;5021140;28;20076;-83
2023/01/11 04:58:44;;;;;;;82.72;76.00;;;;;;;3.46;100.00;100920.13;5021379;28;20046;-83
2023/01/11 05:01:12;;;;;;;94.00;86.93;;;;;;;3.35;100.00;100927.28;5020743;28;20053;-84
2023/01/11 05:03:39;;;;;;;120.97;112.78;;;;;;;3.44;100.00;100936.03;5020818;28;20069;-83
2023/01/11 05:06:06;;;;;;;111.15;103.75;;;;;;;3.56;100.00;100939.22;5020980;28;20056;-83
2023/01/11 05:08:34;;;;;;;109.82;102.15;;;;;;;3.44;100.00;100942.09;5020532;28;20051;-83
2023/01/11 05:11:03;;;;;;;108.10;100.45;;;;;;;3.50;100.00;100942.47;5020647;28;20116;-83
2023/01/11 05:13:42;;;;;;;119.63;111.43;;;;;;;3.58;100.00;100942.53;5021270;28;20042;-83
2023/01/11 05:16:11;;;;;;;123.22;114.78;;;;;;;3.42;100.00;100941.47;5016592;28;20054;-83
2023/01/11 05:18:40;;;;;;;133.60;124.43;;;;;;;3.40;100.00;100951.28;5020402;28;20042;-83
2023/01/11 05:21:07;;;;;;;139.73;130.40;;;;;;;3.39;100.00;100954.91;5019938;28;20089;-83
2023/01/11 05:23:36;;;;;;;86.95;80.22;;;;;;;3.50;100.00;100956.44;5020586;28;20053;-83
2023/01/11 05:26:04;;;;;;;106.18;98.20;;;;;;;3.49;100.00;100959.22;5019355;28;20050;-83
2023/01/11 05:28:31;;;;;;;104.68;97.28;;;;;;;3.46;100.00;100954.28;5020248;28;20105;-84
2023/01/11 05:30:58;;;;;;;114.25;105.68;;;;;;;3.51;100.00;100965.97;5020822;28;20072;-84
2023/01/11 05:33:25;;;;;;;109.63;101.40;;;;;;;3.53;100.00;100964.00;5019935;28;20507;-84
2023/01/11 05:35:56;;;;;;;100.10;91.70;;;;;;;3.52;100.00;100975.50;5020631;28;20080;-83
2023/01/11 05:38:23;;;;;;;103.07;94.80;;;;;;;3.51;100.00;100967.75;5019811;28;20046;-83
2023/01/11 05:40:55;;;;;;;100.32;92.18;;;;;;;3.57;100.00;100962.72;5019860;28;20050;-83
2023/01/11 05:43:22;;;;;;;92.57;84.80;;;;;;;3.55;100.00;100974.38;5020426;28;20073;-83
2023/01/11 05:45:48;;;;;;;95.40;87.40;;;;;;;3.52;100.00;100972.88;5020174;28;20495;-83
2023/01/11 05:48:14;;;;;;;99.85;91.60;;;;;;;3.49;100.00;100983.69;5019786;28;20104;-83
2023/01/11 05:50:41;;;;;;;94.75;86.60;;;;;;;3.53;100.00;100989.44;5020235;28;20108;-83
2023/01/11 05:53:09;;;;;;;93.00;85.03;;;;;;;3.47;100.00;100997.94;5019830;28;20108;-83
2023/01/11 05:55:35;;;;;;;97.70;89.63;;;;;;;3.54;100.00;100993.72;5019910;28;20088;-83
2023/01/11 05:58:05;;;;;;;94.07;86.40;;;;;;;3.58;100.00;100993.25;5020859;28;20076;-84
2023/01/11 06:00:32;;;;;;;88.28;80.70;;;;;;;3.51;100.00;101002.75;5019726;28;20054;-83
2023/01/11 06:03:00;;;;;;;91.32;83.65;;;;;;;3.63;100.00;101004.16;5019993;28;20046;-83
2023/01/11 06:05:27;;;;;;;92.05;84.30;;;;;;;3.58;100.00;101018.72;5019463;28;20050;-83
2023/01/11 06:08:08;;;;;;;87.68;80.15;;;;;;;3.68;100.00;101009.75;5086553;27;20390;-83
2023/01/11 06:10:35;;;;;;;88.00;80.40;;;;;;;3.66;100.00;100997.75;5074016;28;20051;-83
2023/01/11 06:15:42;;;;;;;96.55;87.65;;;;;;;3.55;100.00;101013.75;5078167;28;20044;-83
2023/01/11 06:18:09;;;;;;;100.15;90.72;;;;;;;3.39;100.00;101003.97;5077341;28;20060;-83
2023/01/11 06:20:36;;;;;;;100.43;91.10;;;;;;;3.46;100.00;101005.00;5077310;28;20099;-83
2023/01/11 06:23:03;;;;;;;97.60;88.80;;;;;;;3.67;100.00;101012.53;5076805;28;20041;-83
2023/01/11 06:25:31;;;;;;;97.22;88.55;;;;;;;3.73;100.00;101027.69;5076648;28;20049;-83
2023/01/11 06:27:59;;;;;;;98.22;89.15;;;;;;;3.52;100.00;101014.06;5077800;28;20048;-83
2023/01/11 06:30:25;;;;;;;100.05;90.95;;;;;;;3.67;100.00;101020.41;5073663;28;20494;-83
2023/01/11 06:32:53;;;;;;;95.18;86.50;;;;;;;3.65;100.00;101017.94;5066379;28;20115;-83
2023/01/11 06:35:20;;;;;;;101.10;92.80;;;;;;;3.55;100.00;101025.09;5076539;28;20478;-83
2023/01/11 06:37:47;;;;;;;97.68;89.35;;;;;;;3.57;100.00;101031.03;5074920;28;20044;-83
2023/01/11 06:40:14;;;;;;;95.03;86.90;;;;;;;3.51;100.00;101029.00;5075713;28;20052;-83
2023/01/11 06:42:42;;;;;;;93.28;85.40;;;;;;;3.78;100.00;101030.69;5075900;28;20502;-83
2023/01/11 06:45:10;;;;;;;116.20;106.93;;;;;;;3.87;100.00;101035.03;5067979;28;20051;-83
2023/01/11 06:47:37;;;;;;;122.93;113.30;;;;;;;3.87;100.00;101040.28;5066545;28;20041;-83
2023/01/11 06:50:04;;;;;;;95.75;87.72;;;;;;;3.81;100.00;101054.03;5068333;28;20049;-83
2023/01/11 06:52:31;;;;;;;96.53;88.38;;;;;;;3.86;100.00;101048.31;5077369;28;20122;-83
2023/01/11 06:54:58;;;;;;;92.75;84.95;;;;;;;3.95;100.00;101044.75;5071429;28;20045;-83
2023/01/11 06:57:25;;;;;;;105.88;97.45;;;;;;;3.87;100.00;101048.16;5078302;28;20044;-83
2023/01/11 06:59:53;;;;;;;93.82;86.15;;;;;;;3.98;100.00;101054.94;5077006;28;20106;-83
2023/01/11 07:02:20;;;;;;;95.90;88.28;;;;;;;3.81;100.00;101056.66;5076763;28;20056;-83
2023/01/11 07:04:46;;;;;;;107.70;99.68;;;;;;;3.86;100.00;101066.69;5068633;28;20049;-83
2023/01/11 07:07:13;;;;;;;89.07;81.60;;;;;;;3.98;100.00;101073.34;5071814;28;20052;-83
2023/01/11 07:09:40;;;;;;;97.00;89.00;;;;;;;3.83;100.00;101080.13;5057121;28;20045;-83
2023/01/11 07:12:06;;;;;;;91.53;84.30;;;;;;;4.05;100.00;101082.25;5059589;28;20075;-83
2023/01/11 07:14:33;;;;;;;92.88;85.85;;;;;;;4.07;100.00;101071.59;4974032;28;20049;-84
2023/01/11 07:17:01;;;;;;;102.80;94.50;;;;;;;4.06;100.00;101080.47;5058230;28;20049;-84
2023/01/11 07:19:28;;;;;;;94.70;87.03;;;;;;;4.01;100.00;101101.94;5042257;28;20107;-84
2023/01/11 07:21:55;;;;;;;95.72;87.50;;;;;;;4.00;100.00;101102.13;5047951;28;20434;-84
2023/01/11 07:24:23;;;;;;;133.63;123.18;;;;;;;4.02;100.00;101111.47;5051747;28;20045;-83
2023/01/11 07:26:50;;;;;;;103.60;94.13;;;;;;;4.06;100.00;101114.66;5047424;28;20056;-84
2023/01/11 07:29:16;;;;;;;110.40;100.30;;;;;;;4.07;100.00;101111.03;5058047;28;20080;-84
2023/01/11 07:31:43;;;;;;;100.85;91.57;;;;;;;3.99;100.00;101119.66;5058895;28;20048;-84
2023/01/11 07:34:11;;;;;;;99.57;89.95;;;;;;;3.95;100.00;101126.22;5060959;28;20582;-84
2023/01/11 07:36:38;;;;;;;108.35;97.72;;;;;;;4.08;100.00;101118.75;5061118;28;20056;-84
2023/01/11 07:39:05;;;;;;;109.15;98.10;;;;;;;4.18;100.00;101123.13;5061092;28;20049;-84
2023/01/11 07:44:16;;;;;;;121.20;111.00;;;;;;;4.15;100.00;101133.94;5049696;28;20111;-84
2023/01/11 07:46:42;;;;;;;115.50;105.95;;;;;;;4.09;100.00;101133.56;4995114;28;20049;-86
2023/01/11 07:49:10;;;;;;;111.50;102.60;;;;;;;4.10;100.00;101144.91;5017432;28;20502;-85
2023/01/11 07:51:37;;;;;;;114.43;105.45;;;;;;;3.98;100.00;101156.63;5016334;28;20427;-84
2023/01/11 07:54:04;;;;;;;111.35;102.43;;;;;;;4.15;100.00;101160.22;5016944;28;20045;-84
2023/01/11 07:56:31;;;;;;;105.65;97.15;;;;;;;4.20;100.00;101150.06;5020748;28;20054;-84
2023/01/11 07:58:58;;;;;;;105.10;97.00;;;;;;;4.05;100.00;101155.03;5016271;28;20050;-84
2023/01/11 08:01:25;;;;;;;97.70;89.75;;;;;;;4.15;100.00;101150.53;5019172;28;20046;-84
2023/01/11 08:03:52;;;;;;;110.35;98.93;;;;;;;4.20;100.00;101156.13;5019393;28;20527;-84
2023/01/11 08:06:20;;;;;;;114.60;103.47;;;;;;;4.26;100.00;101160.78;5016286;28;20076;-84
2023/01/11 08:08:47;;;;;;;111.30;101.68;;;;;;;4.15;100.00;101163.69;5017151;28;20042;-84
2023/01/11 08:16:41;;;;;;;100.07;91.97;;;;;;;4.18;100.00;101175.69;5019913;28;20589;-84
2023/01/11 08:19:08;;;;;;;98.85;90.80;;;;;;;4.15;100.00;101186.53;5013679;28;20046;-84
2023/01/11 08:21:36;;;;;;;104.47;95.72;;;;;;;4.19;100.00;101178.16;5016451;28;20049;-84
2023/01/11 08:26:44;;;;;;;99.60;91.22;;;;;;;4.28;100.00;101181.69;5153507;27;20397;-83
2023/01/11 08:29:11;;;;;;;105.30;96.70;;;;;;;4.30;100.00;101185.81;5155032;27;20035;-83
2023/01/11 08:31:38;;;;;;;93.00;85.57;;;;;;;4.37;100.00;101186.03;5156115;27;20102;-82
2023/01/11 08:34:05;;;;;;;88.43;81.47;;;;;;;4.42;100.00;101182.91;5156663;27;20488;-84
2023/01/11 08:36:32;;;;;;;91.18;84.18;;;;;;;4.50;100.00;101180.34;5153299;27;20076;-83
2023/01/11 08:38:58;;;;;;;93.95;86.57;;;;;;;4.39;100.00;101197.22;5156660;27;20099;-83
2023/01/11 08:41:25;;;;;;;91.15;83.68;;;;;;;4.59;100.00;101188.13;5157676;27;20047;-83
2023/01/11 08:43:54;;;;;;;99.53;91.95;;;;;;;4.72;100.00;101200.88;5155484;27;20042;-83
2023/01/11 08:46:20;;;;;;;98.57;91.05;;;;;;;4.58;100.00;101194.38;5155775;27;20079;-84
2023/01/11 08:48:47;;;;;;;91.55;84.30;;;;;;;4.52;100.00;101197.63;5155324;27;20043;-83
2023/01/11 08:51:14;;;;;;;105.78;97.78;;;;;;;4.59;100.00;101208.34;5157057;27;20043;-83
2023/01/11 08:53:41;;;;;;;113.95;105.55;;;;;;;4.55;100.00;101207.84;5151496;27;20042;-83
2023/01/11 08:56:08;;;;;;;113.00;104.93;;;;;;;4.61;100.00;101208.22;5156642;27;20092;-84
2023/01/11 08:58:35;;;;;;;142.48;132.70;;;;;;;4.73;100.00;101194.63;5159382;27;20054;-83
2023/01/11 09:01:07;;;;;;;126.05;117.30;;;;;;;4.61;100.00;101195.06;5160485;27;20050;-83
2023/01/11 09:03:34;;;;;;;129.35;120.07;;;;;;;4.95;100.00;101208.22;5151920;27;20043;-84
2023/01/11 09:06:01;;;;;;;133.18;123.88;;;;;;;4.72;100.00;101202.66;5154351;27;20721;-84
2023/01/11 09:08:28;;;;;;;134.63;125.47;;;;;;;4.78;100.00;101221.31;5153270;27;20100;-84
2023/01/11 09:10:58;;;;;;;121.00;112.78;;;;;;;4.82;100.00;101214.75;5156622;27;20047;-84
2023/01/11 09:13:25;;;;;;;125.22;116.20;;;;;;;4.98;100.00;101221.91;5156496;27;20055;-84
2023/01/11 09:15:55;;;;;;;117.28;108.85;;;;;;;4.82;100.00;101224.47;5155955;27;20051;-84
2023/01/11 09:18:25;;;;;;;117.07;108.93;;;;;;;4.66;100.00;101211.19;5154387;27;20067;-83
2023/01/11 09:20:52;;;;;;;113.63;105.25;;;;;;;4.65;100.00;101230.59;5158083;27;20070;-84
2023/01/11 09:23:19;;;;;;;131.15;121.82;;;;;;;4.52;100.00;101236.28;5153425;27;20071;-83
2023/01/11 09:25:46;;;;;;;130.10;121.05;;;;;;;4.52;100.00;101233.63;5152694;27;20051;-84
2023/01/11 09:28:12;;;;;;;126.32;117.25;;;;;;;4.42;100.00;101239.00;5157854;27;20511;-84
2023/01/11 09:30:39;;;;;;;130.85;121.45;;;;;;;4.70;100.00;101221.25;5154843;27;20614;-83
2023/01/11 09:33:06;;;;;;;145.90;135.40;;;;;;;4.70;100.00;101237.06;5155057;27;20043;-84
2023/01/11 09:35:37;;;;;;;141.27;131.10;;;;;;;4.71;100.00;101236.06;5148829;27;20042;-83
2023/01/11 09:38:04;;;;;;;145.68;135.65;;;;;;;4.93;100.00;101232.09;5144562;27;20051;-84
2023/01/11 09:40:40;;;;;;;137.60;127.88;;;;;;;4.71;100.00;101230.78;5144768;27;20047;-84
2023/01/11 09:43:11;;;;;;;142.93;132.63;;;;;;;4.61;100.00;101237.16;5142220;27;20073;-84
2023/01/11 09:45:45;;;;;;;124.35;115.53;;;;;;;4.62;100.00;101241.44;5142367;27;20048;-84
2023/01/11 09:48:25;;;;;;;123.22;114.40;;;;;;;4.71;100.00;101241.31;5139025;27;20515;-83
2023/01/11 09:50:53;;;;;;;148.73;134.13;;;;;;;4.78;100.00;101244.16;5140177;27;20591;-84
2023/01/11 09:53:26;;;;;;;112.10;102.60;;;;;;;4.62;100.00;101246.69;5138292;27;20393;-84
2023/01/11 09:55:56;;;;;;;117.78;108.35;;;;;;;5.00;100.00;101256.00;5141542;27;20054;-84
2023/01/11 09:58:53;;;;;;;123.10;114.00;;;;;;;4.97;100.00;101251.84;5145058;27;20074;-84
2023/01/11 10:01:31;;;;;;;132.73;122.60;;;;;;;5.05;100.00;101245.78;5141184;27;20496;-84
2023/01/11 10:04:35;;;;;;;133.23;123.78;;;;;;;4.70;100.00;101265.19;5145499;27;20039;-84
2023/01/11 10:07:32;;;;;;;131.70;122.40;;;;;;;5.04;100.00;101268.66;5143089;27;20047;-84
2023/01/11 10:10:13;;;;;;;140.80;130.82;;;;;;;5.05;100.00;101262.44;5140787;27;20073;-84
2023/01/11 10:12:47;;;;;;;154.48;143.32;;;;;;;4.85;100.00;101265.44;5144225;27;20049;-83
2023/01/11 10:15:26;;;;;;;145.05;134.38;;;;;;;4.83;100.00;101260.31;5137754;27;20054;-84
2023/01/11 10:18:12;;;;;;;146.23;134.60;;;;;;;4.87;100.00;101253.78;5137788;27;20043;-84
2023/01/11 10:20:45;;;;;;;131.63;122.20;;;;;;;4.65;100.00;101251.66;5144565;27;20058;-84
2023/01/11 10:23:16;;;;;;;128.52;119.25;;;;;;;4.64;100.00;101263.97;5134213;27;20043;-84
2023/01/11 10:25:50;;;;;;;145.45;135.45;;;;;;;4.69;100.00;101260.88;5133668;27;20047;-84
2023/01/11 10:28:28;;;;;;;132.13;122.40;;;;;;;4.68;100.00;101259.22;5126721;27;20054;-83
2023/01/11 10:31:10;;;;;;;120.90;112.40;;;;;;;4.63;100.00;101259.72;5137331;27;20075;-84
2023/01/11 10:33:56;;;;;;;138.40;128.37;;;;;;;4.57;100.00;101255.88;5138581;27;20066;-83
2023/01/11 10:36:50;;;;;;;120.35;112.20;;;;;;;4.60;100.00;101257.38;5136612;27;20065;-84
2023/01/11 10:39:45;;;;;;;135.48;126.25;;;;;;;4.41;100.00;101268.06;5138688;27;20079;-83
2023/01/11 10:42:20;;;;;;;134.60;124.72;;;;;;;4.54;100.00;101258.81;5136821;27;20039;-83
2023/01/11 10:44:58;;;;;;;129.65;119.82;;;;;;;4.62;100.00;101273.00;5137099;27;20557;-84
2023/01/11 10:47:31;;;;;;;134.13;123.30;;;;;;;4.69;100.00;101271.41;5133067;27;20050;-84
2023/01/11 10:49:59;;;;;;;;;;;;;;;4.49;100.00;101265.50;5137911;27;20048;-84
2023/01/11 10:52:34;;;;;;;100.93;91.88;;;;;;;4.44;100.00;101268.59;5135541;27;20350;-83
2023/01/11 10:55:11;;;;;;;98.45;88.93;;;;;;;4.57;100.00;101270.84;5137022;27;20107;-84
2023/01/11 10:57:49;;;;;;;100.13;90.50;;;;;;;4.53;100.00;101262.41;5126258;28;20073;-84
2023/01/11 11:00:24;;;;;;;104.05;94.20;;;;;;;4.54;100.00;101265.91;5135068;27;20143;-84
2023/01/11 11:03:06;;;;;;;102.50;92.57;;;;;;;4.55;100.00;101270.97;5131999;27;20052;-84
2023/01/11 11:05:38;;;;;;;100.20;91.13;;;;;;;4.46;100.00;101271.06;5136623;27;20047;-84
2023/01/11 11:08:11;;;;;;;97.00;87.20;;;;;;;4.54;100.00;101261.44;5130781;27;20294;-83
2023/01/11 11:10:48;;;;;;;95.72;86.55;;;;;;;4.49;100.00;101255.00;5131913;27;20107;-84
2023/01/11 11:13:23;;;;;;;96.03;86.60;;;;;;;4.70;100.00;101263.38;5129038;27;20073;-83
2023/01/11 11:15:56;;;;;;;94.47;84.90;;;;;;;4.58;100.00;101265.41;5133867;27;20100;-84
2023/01/11 11:18:23;;;;;;;99.10;89.43;;;;;;;4.58;100.00;101267.22;5143896;27;20072;-83
2023/01/11 11:20:50;;;;;;;100.80;91.10;;;;;;;4.68;100.00;101264.50;5136637;27;20054;-84
2023/01/11 11:23:20;;;;;;;100.57;90.40;;;;;;;4.75;100.00;101262.88;5139960;27;20047;-84
2023/01/11 11:25:55;;;;;;;100.25;90.35;;;;;;;4.65;100.00;101259.53;5140205;27;20080;-84
2023/01/11 11:28:28;;;;;;;100.45;90.18;;;;;;;4.77;100.00;101266.19;5137906;27;20052;-83
2023/01/11 11:30:55;;;;;;;;;;;;;;;4.70;100.00;101271.25;5139245;27;20100;-83
2023/01/11 11:33:24;;;;;;;116.43;106.20;;;;;;;4.76;100.00;101262.75;5143297;27;19919;-84
2023/01/11 11:35:57;;;;;;;121.65;110.85;;;;;;;4.58;100.00;101275.94;5140549;27;20051;-84
2023/01/11 11:38:25;;;;;;;122.25;111.13;;;;;;;4.55;100.00;101276.25;5139882;27;20507;-84
2023/01/11 11:41:08;;;;;;;128.15;117.15;;;;;;;4.56;100.00;101270.00;5137719;27;20500;-84